createdAt,value
2017-12-05T00:00:13.427Z,93.41
2017-12-05T00:02:40.990Z,93.78
2017-12-05T00:05:08.554Z,94.06
2017-12-05T00:07:36.116Z,93.80
2017-12-05T00:10:03.683Z,93.98
2017-12-05T00:12:31.232Z,94.08
2017-12-05T00:14:58.802Z,93.78
2017-12-05T00:17:26.353Z,93.77
2017-12-05T00:19:53.913Z,93.58
2017-12-05T00:22:21.512Z,93.31
2017-12-05T00:24:49.067Z,93.71
2017-12-05T00:27:16.638Z,93.89
2017-12-05T00:29:44.194Z,93.53
2017-12-05T00:32:11.791Z,93.40
2017-12-05T00:34:39.358Z,93.54
2017-12-05T00:37:06.908Z,93.61
2017-12-05T00:39:34.459Z,93.38
2017-12-05T00:42:02.020Z,92.96
2017-12-05T00:44:29.572Z,92.92
2017-12-05T00:46:57.128Z,93.41
2017-12-05T00:49:24.734Z,93.15
2017-12-05T00:51:52.286Z,92.77
2017-12-05T00:54:19.899Z,92.71
2017-12-05T00:56:47.457Z,93.06
2017-12-05T00:59:15.014Z,92.79
2017-12-05T01:01:42.577Z,93.14
2017-12-05T01:04:10.169Z,93.13
2017-12-05T01:06:37.794Z,92.78
2017-12-05T01:09:05.389Z,93.37
2017-12-05T01:11:32.954Z,93.02
2017-12-05T01:14:00.564Z,93.56
2017-12-05T01:16:28.129Z,93.20
2017-12-05T01:18:55.736Z,93.65
2017-12-05T01:21:23.300Z,93.21
2017-12-05T01:23:50.936Z,93.00
2017-12-05T01:26:18.503Z,93.17
2017-12-05T01:28:46.065Z,92.86
2017-12-05T01:31:13.660Z,93.03
2017-12-05T01:33:41.217Z,93.35
2017-12-05T01:36:08.846Z,93.02
2017-12-05T01:38:36.440Z,93.32
2017-12-05T01:41:04.040Z,93.53
2017-12-05T01:43:31.597Z,93.64
2017-12-05T01:45:59.149Z,93.77
2017-12-05T01:48:26.748Z,93.71
2017-12-05T01:50:54.351Z,93.90
2017-12-05T01:53:21.955Z,94.00
2017-12-05T01:55:49.513Z,94.07
2017-12-05T01:58:17.109Z,94.20
2017-12-05T02:00:49.631Z,94.23
2017-12-05T02:03:17.226Z,95.16
2017-12-05T02:05:44.793Z,94.93
2017-12-05T02:08:12.354Z,94.97
2017-12-05T02:10:39.915Z,95.67
2017-12-05T02:13:07.473Z,95.84
2017-12-05T02:15:35.079Z,95.77
2017-12-05T02:18:02.636Z,96.54
2017-12-05T02:20:30.200Z,96.45
2017-12-05T02:22:57.758Z,96.54
2017-12-05T02:25:25.345Z,97.14
2017-12-05T02:27:52.904Z,96.93
2017-12-05T02:30:21.116Z,96.56
2017-12-05T02:32:48.676Z,96.94
2017-12-05T02:35:16.273Z,97.10
2017-12-05T02:37:43.833Z,97.67
2017-12-05T02:40:11.429Z,97.55
2017-12-05T02:42:38.985Z,97.73
2017-12-05T02:45:06.576Z,97.35
2017-12-05T02:47:34.135Z,97.06
2017-12-05T02:50:01.688Z,96.96
2017-12-05T02:52:29.336Z,96.89
2017-12-05T02:54:56.898Z,97.45
2017-12-05T02:57:24.462Z,97.29
2017-12-05T02:59:52.015Z,97.36
2017-12-05T03:02:19.562Z,97.47
2017-12-05T03:04:47.111Z,97.25
2017-12-05T03:07:14.725Z,97.45
2017-12-05T03:09:42.280Z,97.28
2017-12-05T03:12:10.474Z,97.25
2017-12-05T03:14:38.134Z,97.40
2017-12-05T03:17:05.691Z,97.33
2017-12-05T03:19:33.248Z,97.53
2017-12-05T03:22:00.805Z,97.73
2017-12-05T03:24:28.361Z,98.02
2017-12-05T03:26:56.833Z,97.75
2017-12-05T03:29:24.432Z,97.83
2017-12-05T03:31:51.988Z,97.67
2017-12-05T03:34:19.539Z,97.39
2017-12-05T03:36:47.104Z,97.19
2017-12-05T03:39:14.662Z,96.84
2017-12-05T03:41:42.220Z,97.05
2017-12-05T03:44:09.943Z,96.99
2017-12-05T03:46:37.539Z,96.75
2017-12-05T03:49:06.000Z,96.77
2017-12-05T03:51:33.549Z,97.05
2017-12-05T03:54:01.105Z,96.54
2017-12-05T03:56:28.697Z,96.65
2017-12-05T03:58:56.368Z,96.89
2017-12-05T04:01:23.926Z,96.42
2017-12-05T04:03:51.480Z,96.84
2017-12-05T04:06:19.145Z,96.91
2017-12-05T04:08:46.739Z,96.86
2017-12-05T04:11:14.291Z,97.26
2017-12-05T04:13:41.841Z,97.62
2017-12-05T04:16:09.401Z,97.68
2017-12-05T04:18:36.949Z,97.74
2017-12-05T04:21:04.506Z,97.34
2017-12-05T04:23:32.063Z,96.72
2017-12-05T04:25:59.656Z,97.06
2017-12-05T04:28:27.203Z,97.13
2017-12-05T04:30:54.760Z,97.42
2017-12-05T04:33:22.316Z,97.56
2017-12-05T04:35:49.901Z,97.42
2017-12-05T04:38:17.459Z,97.40
2017-12-05T04:40:45.023Z,97.59
2017-12-05T04:43:12.581Z,97.14
2017-12-05T04:45:40.139Z,97.10
2017-12-05T04:48:07.692Z,97.21
2017-12-05T04:50:35.252Z,97.25
2017-12-05T04:53:02.901Z,97.64
2017-12-05T04:55:31.246Z,97.75
2017-12-05T04:57:59.608Z,97.75
2017-12-05T05:00:28.053Z,97.52
2017-12-05T05:02:55.607Z,97.41
2017-12-05T05:05:23.161Z,97.43
2017-12-05T05:07:51.609Z,97.16
2017-12-05T05:12:53.838Z,97.47
2017-12-05T05:15:21.397Z,97.55
2017-12-05T05:17:48.962Z,97.42
2017-12-05T05:20:18.279Z,97.54
2017-12-05T05:22:45.836Z,97.72
2017-12-05T05:25:13.392Z,97.65
2017-12-05T05:27:40.951Z,98.01
2017-12-05T05:30:08.550Z,98.27
2017-12-05T05:32:36.119Z,98.21
2017-12-05T05:35:03.718Z,98.26
2017-12-05T05:37:31.272Z,98.37
2017-12-05T05:39:58.820Z,98.32
2017-12-05T05:42:26.408Z,98.49
2017-12-05T05:44:53.967Z,98.16
2017-12-05T05:47:21.525Z,98.36
2017-12-05T05:49:49.084Z,98.56
2017-12-05T05:52:16.644Z,98.53
2017-12-05T05:54:44.273Z,98.27
2017-12-05T05:57:11.871Z,98.73
2017-12-05T05:59:39.431Z,98.99
2017-12-05T06:02:07.010Z,99.23
2017-12-05T06:04:34.620Z,99.16
2017-12-05T06:07:02.185Z,99.17
2017-12-05T06:09:29.760Z,99.27
2017-12-05T06:11:57.407Z,99.18
2017-12-05T06:14:25.884Z,98.97
2017-12-05T06:16:54.332Z,99.04
2017-12-05T06:19:21.908Z,99.21
2017-12-05T06:21:49.489Z,99.28
2017-12-05T06:24:17.088Z,99.22
2017-12-05T06:26:44.651Z,99.36
2017-12-05T06:29:12.225Z,99.15
2017-12-05T06:34:13.639Z,99.05
2017-12-05T06:36:41.198Z,98.93
2017-12-05T06:39:08.799Z,98.88
2017-12-05T06:41:36.372Z,98.67
2017-12-05T06:44:03.945Z,98.62
2017-12-05T06:46:31.508Z,98.37
2017-12-05T06:48:59.064Z,98.45
2017-12-05T06:51:26.674Z,98.42
2017-12-05T06:53:54.233Z,98.35
2017-12-05T06:56:21.796Z,98.45
2017-12-05T06:58:50.271Z,98.51
2017-12-05T07:01:17.829Z,98.62
2017-12-05T07:03:45.389Z,98.56
2017-12-05T07:06:12.950Z,98.34
2017-12-05T07:08:41.164Z,98.58
2017-12-05T07:11:08.724Z,98.35
2017-12-05T07:13:36.329Z,98.07
2017-12-05T07:16:03.884Z,97.99
2017-12-05T07:18:32.324Z,98.08
2017-12-05T07:20:59.991Z,97.92
2017-12-05T07:23:27.558Z,98.30
2017-12-05T07:25:56.013Z,98.05
2017-12-05T07:28:23.579Z,97.96
2017-12-05T07:30:51.143Z,98.16
2017-12-05T07:33:19.601Z,97.98
2017-12-05T07:35:47.155Z,97.83
2017-12-05T07:38:14.746Z,97.62
2017-12-05T07:40:42.299Z,97.79
2017-12-05T07:43:09.857Z,97.86
2017-12-05T07:45:37.428Z,97.62
2017-12-05T07:48:04.985Z,97.43
2017-12-05T07:50:32.541Z,97.37
2017-12-05T07:53:00.096Z,97.67
2017-12-05T07:55:27.657Z,97.49
2017-12-05T07:57:55.208Z,97.48
2017-12-05T08:00:22.771Z,97.33
2017-12-05T08:02:50.367Z,97.23
2017-12-05T08:05:18.855Z,97.50
2017-12-05T08:07:47.337Z,97.26
2017-12-05T08:10:15.709Z,97.17
2017-12-05T08:12:43.273Z,97.03
2017-12-05T08:15:11.764Z,97.05
2017-12-05T08:17:39.317Z,97.05
2017-12-05T08:20:07.803Z,97.16
2017-12-05T08:22:36.143Z,97.56
2017-12-05T08:25:04.492Z,97.54
2017-12-05T08:27:32.868Z,97.18
2017-12-05T08:30:00.492Z,97.33
2017-12-05T08:32:28.077Z,96.99
2017-12-05T08:34:56.417Z,97.00
2017-12-05T08:37:24.788Z,97.00
2017-12-05T08:39:52.374Z,96.75
2017-12-05T08:42:19.974Z,96.88
2017-12-05T08:44:48.364Z,97.13
2017-12-05T08:47:15.919Z,97.30
2017-12-05T08:49:44.369Z,97.08
2017-12-05T08:52:12.707Z,97.36
2017-12-05T08:54:40.264Z,97.57
2017-12-05T08:57:08.745Z,96.97
2017-12-05T08:59:37.023Z,96.89
2017-12-05T09:02:04.583Z,96.79
2017-12-05T09:04:32.139Z,96.61
2017-12-05T09:07:00.496Z,96.39
2017-12-05T09:09:28.115Z,96.52
2017-12-05T09:11:56.409Z,96.70
2017-12-05T09:14:23.964Z,96.62
2017-12-05T09:16:51.563Z,96.66
2017-12-05T09:19:19.116Z,96.94
2017-12-05T09:21:47.488Z,96.69
2017-12-05T09:24:15.043Z,96.54
2017-12-05T09:26:43.408Z,96.31
2017-12-05T09:29:11.007Z,96.01
2017-12-05T09:31:39.459Z,95.63
2017-12-05T09:34:07.012Z,95.32
2017-12-05T09:36:34.580Z,95.17
2017-12-05T09:39:03.081Z,95.09
2017-12-05T09:41:31.281Z,95.19
2017-12-05T10:02:21.549Z,94.34
2017-12-05T10:04:49.094Z,94.22
2017-12-05T10:07:16.642Z,94.33
2017-12-05T10:09:44.193Z,94.44
2017-12-05T10:12:11.748Z,94.20
2017-12-05T10:14:39.295Z,94.13
2017-12-05T10:17:06.860Z,93.68
2017-12-05T10:19:35.319Z,93.94
2017-12-05T10:22:02.911Z,93.98
2017-12-05T10:24:30.462Z,94.39
2017-12-05T10:26:58.021Z,93.94
2017-12-05T10:29:25.572Z,93.81
2017-12-05T10:31:54.302Z,94.16
2017-12-05T10:34:21.911Z,93.66
2017-12-05T10:36:50.376Z,93.77
2017-12-05T10:39:17.933Z,93.42
2017-12-05T10:41:45.489Z,93.40
2017-12-05T10:44:13.043Z,93.52
2017-12-05T10:46:40.594Z,93.47
2017-12-05T10:49:08.153Z,92.79
2017-12-05T10:51:35.712Z,93.25
2017-12-05T10:54:03.269Z,93.19
2017-12-05T10:56:30.826Z,93.01
2017-12-05T10:58:58.386Z,93.13
2017-12-05T11:01:25.946Z,92.10
2017-12-05T11:03:53.501Z,91.66
2017-12-05T11:06:21.104Z,92.15
2017-12-05T11:08:48.653Z,92.77
2017-12-05T11:11:16.983Z,92.68
2017-12-05T11:13:45.328Z,93.80
2017-12-05T11:16:13.734Z,94.55
2017-12-05T11:18:41.962Z,94.42
2017-12-05T11:21:09.512Z,94.11
2017-12-05T11:23:37.073Z,94.45
2017-12-05T11:26:04.623Z,94.80
2017-12-05T11:28:32.179Z,94.65
2017-12-05T11:30:59.741Z,94.81
2017-12-05T11:33:27.303Z,94.74
2017-12-05T11:35:54.856Z,94.54
2017-12-05T11:38:22.460Z,94.37
2017-12-05T11:40:50.012Z,93.98
2017-12-05T11:43:17.668Z,94.21
2017-12-05T11:45:45.233Z,93.91
2017-12-05T11:48:12.787Z,93.54
2017-12-05T11:50:40.336Z,92.34
2017-12-05T11:53:08.825Z,92.74
2017-12-05T11:55:36.376Z,92.81
2017-12-05T11:58:04.861Z,92.88
2017-12-05T12:00:32.418Z,92.90
2017-12-05T12:02:59.979Z,92.73
2017-12-05T12:05:27.528Z,92.92
2017-12-05T12:07:55.128Z,92.55
2017-12-05T12:10:22.690Z,92.82
2017-12-05T12:12:50.283Z,93.61
2017-12-05T12:15:17.837Z,93.21
2017-12-05T12:17:46.109Z,92.45
2017-12-05T12:20:13.668Z,92.62
2017-12-05T12:22:41.228Z,92.83
2017-12-05T12:25:08.784Z,92.28
2017-12-05T12:27:36.335Z,91.75
2017-12-05T12:30:03.888Z,92.68
2017-12-05T12:32:31.442Z,92.32
2017-12-05T12:34:58.999Z,92.34
2017-12-05T12:37:26.650Z,92.46
2017-12-05T12:39:54.277Z,91.93
2017-12-05T12:42:21.832Z,91.57
2017-12-05T12:44:49.392Z,92.12
2017-12-05T12:47:16.945Z,91.42
2017-12-05T12:49:45.284Z,90.79
2017-12-05T12:52:12.842Z,90.84
2017-12-05T12:54:40.394Z,90.71
2017-12-05T12:57:07.954Z,90.82
2017-12-05T12:59:35.515Z,91.03
2017-12-05T13:02:03.071Z,90.79
2017-12-05T13:04:30.635Z,91.00
2017-12-05T13:06:59.007Z,91.68
2017-12-05T13:09:26.572Z,91.34
2017-12-05T13:11:54.928Z,91.50
2017-12-05T13:14:23.285Z,92.14
2017-12-05T13:16:51.648Z,92.26
2017-12-05T13:19:19.988Z,91.80
2017-12-05T13:21:48.329Z,91.99
2017-12-05T13:24:15.890Z,91.92
2017-12-05T13:26:44.373Z,91.56
2017-12-05T13:29:12.713Z,91.44
2017-12-05T13:31:40.278Z,91.57
2017-12-05T13:34:07.838Z,91.43
2017-12-05T13:36:36.308Z,91.00
2017-12-05T13:39:03.860Z,91.24
2017-12-05T13:41:32.325Z,91.53
2017-12-05T13:43:59.883Z,91.10
2017-12-05T13:46:28.373Z,90.62
2017-12-05T13:48:56.728Z,91.10
2017-12-05T13:51:24.276Z,90.70
2017-12-05T13:53:51.840Z,91.47
2017-12-05T13:56:20.321Z,91.01
2017-12-05T13:58:48.801Z,91.12
2017-12-05T14:01:17.185Z,91.32
2017-12-05T14:03:45.551Z,91.38
2017-12-05T14:06:13.127Z,91.33
2017-12-05T14:08:41.156Z,91.40
2017-12-05T14:11:08.756Z,91.90
2017-12-05T14:13:36.520Z,91.94
2017-12-05T14:16:04.392Z,91.60
2017-12-05T14:18:31.953Z,91.24
2017-12-05T14:20:59.512Z,90.76
2017-12-05T14:23:27.070Z,90.67
2017-12-05T14:25:54.769Z,90.48
2017-12-05T14:28:22.413Z,89.72
2017-12-05T14:30:49.977Z,90.06
2017-12-05T14:33:17.540Z,89.80
2017-12-05T14:35:46.001Z,89.89
2017-12-05T14:38:13.562Z,89.68
2017-12-05T14:40:41.130Z,89.47
2017-12-05T14:43:08.709Z,89.47
2017-12-05T14:45:37.104Z,89.45
2017-12-05T14:48:04.657Z,89.44
2017-12-05T14:50:33.141Z,89.56
2017-12-05T14:53:00.731Z,89.34
2017-12-05T14:55:29.216Z,89.22
2017-12-05T14:57:56.769Z,89.36
2017-12-05T15:00:24.328Z,89.53
2017-12-05T15:02:51.885Z,89.59
2017-12-05T15:05:19.445Z,89.91
2017-12-05T15:07:47.005Z,89.87
2017-12-05T15:10:15.372Z,90.44
2017-12-05T15:12:42.940Z,90.65
2017-12-05T15:15:10.553Z,91.25
2017-12-05T15:17:38.117Z,91.56
2017-12-05T15:20:05.673Z,91.86
2017-12-05T15:22:33.264Z,91.22
2017-12-05T15:25:00.832Z,91.60
2017-12-05T15:27:28.427Z,91.49
2017-12-05T15:29:55.979Z,91.78
2017-12-05T15:32:23.540Z,91.80
2017-12-05T15:34:51.096Z,91.76
2017-12-05T15:37:18.680Z,92.24
2017-12-05T15:39:46.240Z,91.92
2017-12-05T15:42:13.802Z,92.80
2017-12-05T15:44:42.094Z,93.37
2017-12-05T15:47:09.709Z,93.76
2017-12-05T15:49:38.204Z,94.13
2017-12-05T15:52:05.764Z,93.91
2017-12-05T15:54:33.326Z,93.08
2017-12-05T15:57:00.894Z,92.79
2017-12-05T15:59:29.380Z,92.44
2017-12-05T16:01:56.948Z,92.15
2017-12-05T16:04:24.511Z,91.45
2017-12-05T16:06:52.071Z,90.42
2017-12-05T16:09:19.670Z,89.69
2017-12-05T16:11:47.230Z,89.70
2017-12-05T16:14:14.784Z,89.28
2017-12-05T16:16:42.376Z,89.02
2017-12-05T16:19:09.941Z,88.52
2017-12-05T16:21:37.537Z,88.50
2017-12-05T16:24:06.019Z,88.63
2017-12-05T16:26:33.612Z,88.71
2017-12-05T16:29:01.176Z,88.09
2017-12-05T16:31:28.763Z,87.37
2017-12-05T16:33:56.334Z,87.62
2017-12-05T16:36:24.048Z,87.46
2017-12-05T16:38:51.599Z,86.66
2017-12-05T16:41:19.168Z,87.00
2017-12-05T16:43:46.760Z,86.99
2017-12-05T16:46:15.107Z,86.97
2017-12-05T16:48:42.706Z,86.66
2017-12-05T16:51:11.164Z,86.63
2017-12-05T16:53:39.697Z,86.40
2017-12-05T16:56:08.172Z,86.24
2017-12-05T16:58:36.568Z,86.07
2017-12-05T17:01:04.918Z,86.05
2017-12-05T17:03:32.496Z,86.10
2017-12-05T17:06:00.992Z,86.48
2017-12-05T17:08:29.334Z,86.46
2017-12-05T17:10:56.885Z,86.25
2017-12-05T17:13:25.388Z,86.25
2017-12-05T17:15:52.981Z,86.42
2017-12-05T17:18:20.544Z,86.98
2017-12-05T17:20:48.204Z,86.52
2017-12-05T17:23:15.764Z,86.17
2017-12-05T17:25:43.360Z,86.77
2017-12-05T17:28:11.053Z,86.52
2017-12-05T17:30:39.096Z,86.46
2017-12-05T17:33:06.683Z,86.10
2017-12-05T17:35:34.252Z,86.37
2017-12-05T17:38:01.844Z,86.44
2017-12-05T17:40:30.411Z,86.71
2017-12-05T17:42:57.972Z,87.13
2017-12-05T17:45:25.544Z,86.34
2017-12-05T17:47:53.240Z,86.11
2017-12-05T17:50:21.732Z,86.31
2017-12-05T17:52:49.340Z,86.05
2017-12-05T17:55:17.818Z,85.77
2017-12-05T17:57:45.387Z,86.43
2017-12-05T18:00:12.961Z,85.73
2017-12-05T18:02:40.530Z,85.53
2017-12-05T18:05:08.153Z,85.54
2017-12-05T18:07:35.719Z,85.66
2017-12-05T18:10:04.190Z,85.44
2017-12-05T18:12:32.639Z,85.98
2017-12-05T18:15:00.244Z,85.62
2017-12-05T18:17:27.803Z,85.66
2017-12-05T18:19:55.360Z,85.28
2017-12-05T18:22:22.925Z,85.04
2017-12-05T18:24:51.328Z,84.95
2017-12-05T18:27:18.898Z,84.81
2017-12-05T18:29:46.702Z,85.23
2017-12-05T18:32:14.524Z,84.94
2017-12-05T18:34:42.861Z,84.81
2017-12-05T18:37:11.283Z,84.35
2017-12-05T18:39:38.843Z,84.62
2017-12-05T18:42:07.482Z,83.91
2017-12-05T18:44:35.091Z,84.06
2017-12-05T18:47:02.652Z,84.44
2017-12-05T18:49:30.315Z,83.60
2017-12-05T18:51:57.877Z,83.83
2017-12-05T18:54:25.504Z,84.08
2017-12-05T18:56:53.063Z,83.64
2017-12-05T18:59:20.632Z,84.15
2017-12-05T19:01:48.192Z,83.88
2017-12-05T19:04:15.792Z,83.02
2017-12-05T19:06:43.355Z,83.46
2017-12-05T19:09:10.916Z,84.15
2017-12-05T19:11:38.481Z,83.48
2017-12-05T19:14:06.040Z,82.65
2017-12-05T19:16:33.695Z,82.44
2017-12-05T19:19:01.268Z,82.80
2017-12-05T19:21:28.833Z,82.95
2017-12-05T19:23:56.403Z,82.42
2017-12-05T19:26:23.964Z,82.94
2017-12-05T19:28:51.519Z,83.04
2017-12-05T19:31:19.080Z,83.57
2017-12-05T19:33:46.648Z,83.33
2017-12-05T19:36:14.289Z,82.88
2017-12-05T19:38:42.625Z,82.71
2017-12-05T19:41:10.228Z,82.67
2017-12-05T19:43:37.792Z,83.13
2017-12-05T19:46:06.159Z,83.73
2017-12-05T19:48:33.728Z,82.91
2017-12-05T19:51:01.289Z,82.77
2017-12-05T19:53:28.845Z,82.66
2017-12-05T19:55:56.405Z,83.05
2017-12-05T19:58:24.770Z,82.67
2017-12-05T20:00:53.101Z,83.02
2017-12-05T20:03:21.576Z,82.64
2017-12-05T20:05:49.139Z,83.43
2017-12-05T20:08:16.732Z,83.34
2017-12-05T20:10:44.299Z,83.47
2017-12-05T20:13:11.860Z,83.08
2017-12-05T20:15:39.424Z,83.14
2017-12-05T20:18:07.015Z,83.16
2017-12-05T20:20:34.619Z,83.19
2017-12-05T20:23:02.232Z,83.24
2017-12-05T20:25:29.910Z,83.42
2017-12-05T20:27:58.478Z,82.95
2017-12-05T20:30:26.038Z,82.99
2017-12-05T20:32:53.729Z,82.78
2017-12-05T20:35:22.077Z,82.54
2017-12-05T20:37:49.668Z,82.85
2017-12-05T20:40:19.164Z,83.49
2017-12-05T20:42:46.724Z,83.09
2017-12-05T20:45:14.284Z,82.99
2017-12-05T20:47:42.752Z,83.10
2017-12-05T20:50:10.312Z,83.05
2017-12-05T20:52:37.873Z,82.62
2017-12-05T20:55:06.356Z,82.95
2017-12-05T20:57:33.912Z,83.31
2017-12-05T21:00:02.408Z,83.02
2017-12-05T21:02:30.740Z,83.28
2017-12-05T21:04:58.334Z,82.70
2017-12-05T21:07:25.895Z,82.99
2017-12-05T21:09:54.357Z,82.78
2017-12-05T21:12:22.884Z,83.30
2017-12-05T21:14:50.449Z,82.94
2017-12-05T21:17:18.982Z,82.96
2017-12-05T21:19:48.311Z,82.67
2017-12-05T21:22:19.786Z,83.16
2017-12-05T21:24:51.050Z,83.38
2017-12-05T21:27:21.146Z,83.59
2017-12-05T21:29:48.790Z,83.03
2017-12-05T21:32:16.526Z,83.21
2017-12-05T21:34:44.888Z,83.71
2017-12-05T21:37:12.504Z,83.82
2017-12-05T21:39:40.976Z,83.76
2017-12-05T21:42:09.365Z,83.53
2017-12-05T21:44:37.860Z,83.77
2017-12-05T21:47:06.354Z,83.98
2017-12-05T21:49:33.960Z,83.76
2017-12-05T21:52:01.522Z,84.33
2017-12-05T21:54:29.088Z,83.65
2017-12-05T21:56:56.652Z,83.97
2017-12-05T21:59:24.208Z,83.78
2017-12-05T22:01:51.772Z,84.16
2017-12-05T22:04:19.332Z,83.91
2017-12-05T22:06:47.016Z,84.29
2017-12-05T22:09:14.583Z,84.09
2017-12-05T22:11:42.221Z,84.32
2017-12-05T22:14:09.780Z,83.71
2017-12-05T22:16:38.284Z,84.53
2017-12-05T22:19:05.847Z,84.36
2017-12-05T22:21:33.449Z,83.53
2017-12-05T22:24:01.031Z,83.81
2017-12-05T22:26:28.600Z,83.79
2017-12-05T22:28:56.257Z,83.66
2017-12-05T22:31:23.817Z,83.48
2017-12-05T22:33:51.397Z,83.58
2017-12-05T22:36:19.019Z,83.13
2017-12-05T22:38:46.583Z,83.80
2017-12-05T22:41:14.164Z,83.82
2017-12-05T22:43:41.761Z,83.55
2017-12-05T22:46:09.317Z,83.97
2017-12-05T22:48:36.881Z,83.29
2017-12-05T22:51:04.444Z,83.52
2017-12-05T22:53:31.999Z,83.72
2017-12-05T22:55:59.564Z,83.49
2017-12-05T22:58:27.123Z,83.43
2017-12-05T23:00:54.994Z,83.46
2017-12-05T23:03:22.560Z,83.39
2017-12-05T23:05:50.128Z,83.77
2017-12-05T23:08:17.692Z,84.10
2017-12-05T23:10:45.291Z,84.27
2017-12-05T23:13:13.552Z,83.99
2017-12-05T23:15:41.148Z,84.50
2017-12-05T23:18:09.566Z,84.04
2017-12-05T23:20:37.908Z,84.20
2017-12-05T23:23:05.520Z,84.69
2017-12-05T23:25:33.076Z,84.09
2017-12-05T23:28:00.636Z,84.43
2017-12-05T23:30:28.202Z,84.48
2017-12-05T23:32:55.760Z,84.47
2017-12-05T23:35:24.136Z,84.33
2017-12-05T23:37:51.700Z,84.27
2017-12-05T23:40:21.084Z,84.94
2017-12-05T23:42:48.644Z,85.06
2017-12-05T23:45:19.384Z,84.42
2017-12-05T23:47:47.751Z,85.53
2017-12-05T23:50:15.344Z,84.82
2017-12-05T23:52:43.050Z,84.85
2017-12-05T23:55:10.611Z,84.46
2017-12-05T23:57:38.210Z,84.39
